sensor_id;sensor_type;location;lat;lon;timestamp;P1;durP1;ratioP1;P2;durP2;ratioP2
5785;SDS011;2919;48.630;9.000;2023-02-15T00:01:51;21.17;;;9.40;;
5785;SDS011;2919;48.630;9.000;2023-02-15T00:04:18;22.13;;;10.03;;
5785;SDS011;2919;48.630;9.000;2023-02-15T00:06:45;14.30;;;8.80;;
5785;SDS011;2919;48.630;9.000;2023-02-15T00:09:11;14.03;;;8.40;;
5785;SDS011;2919;48.630;9.000;2023-02-15T00:11:37;22.03;;;9.50;;
5785;SDS011;2919;48.630;9.000;2023-02-15T00:14:14;19.60;;;7.17;;
5785;SDS011;2919;48.630;9.000;2023-02-15T00:16:41;19.30;;;8.43;;
5785;SDS011;2919;48.630;9.000;2023-02-15T00:19:08;18.70;;;7.83;;
5785;SDS011;2919;48.630;9.000;2023-02-15T00:21:36;17.30;;;7.40;;
5785;SDS011;2919;48.630;9.000;2023-02-15T00:24:03;21.07;;;10.33;;
5785;SDS011;2919;48.630;9.000;2023-02-15T00:26:31;24.10;;;8.77;;
5785;SDS011;2919;48.630;9.000;2023-02-15T00:28:57;22.30;;;8.53;;
5785;SDS011;2919;48.630;9.000;2023-02-15T00:31:24;19.50;;;7.23;;
5785;SDS011;2919;48.630;9.000;2023-02-15T00:33:50;16.70;;;8.47;;
5785;SDS011;2919;48.630;9.000;2023-02-15T00:36:16;20.20;;;8.37;;
5785;SDS011;2919;48.630;9.000;2023-02-15T00:38:41;22.73;;;9.47;;
5785;SDS011;2919;48.630;9.000;2023-02-15T00:41:07;14.77;;;7.10;;
5785;SDS011;2919;48.630;9.000;2023-02-15T00:43:34;20.40;;;9.10;;
5785;SDS011;2919;48.630;9.000;2023-02-15T00:46:01;23.53;;;8.77;;
5785;SDS011;2919;48.630;9.000;2023-02-15T00:48:28;15.47;;;8.63;;
5785;SDS011;2919;48.630;9.000;2023-02-15T00:50:55;18.20;;;8.90;;
5785;SDS011;2919;48.630;9.000;2023-02-15T00:53:22;26.40;;;9.97;;
5785;SDS011;2919;48.630;9.000;2023-02-15T00:55:48;14.60;;;8.03;;
5785;SDS011;2919;48.630;9.000;2023-02-15T00:58:14;20.37;;;9.30;;
5785;SDS011;2919;48.630;9.000;2023-02-15T01:00:42;14.03;;;7.90;;
5785;SDS011;2919;48.630;9.000;2023-02-15T01:03:09;15.17;;;8.50;;
5785;SDS011;2919;48.630;9.000;2023-02-15T01:05:34;16.80;;;8.40;;
5785;SDS011;2919;48.630;9.000;2023-02-15T01:08:00;19.60;;;9.43;;
5785;SDS011;2919;48.630;9.000;2023-02-15T01:10:26;20.70;;;9.37;;
5785;SDS011;2919;48.630;9.000;2023-02-15T01:12:53;20.93;;;9.30;;
5785;SDS011;2919;48.630;9.000;2023-02-15T01:15:19;15.93;;;8.07;;
5785;SDS011;2919;48.630;9.000;2023-02-15T01:17:45;17.07;;;7.87;;
5785;SDS011;2919;48.630;9.000;2023-02-15T01:20:16;14.43;;;9.07;;
5785;SDS011;2919;48.630;9.000;2023-02-15T01:22:43;22.67;;;10.20;;
5785;SDS011;2919;48.630;9.000;2023-02-15T01:25:09;16.00;;;9.20;;
5785;SDS011;2919;48.630;9.000;2023-02-15T01:27:34;28.03;;;9.47;;
5785;SDS011;2919;48.630;9.000;2023-02-15T01:30:00;23.90;;;8.13;;
5785;SDS011;2919;48.630;9.000;2023-02-15T01:32:25;21.07;;;9.00;;
5785;SDS011;2919;48.630;9.000;2023-02-15T01:34:51;19.37;;;9.77;;
5785;SDS011;2919;48.630;9.000;2023-02-15T01:37:17;19.00;;;7.97;;
5785;SDS011;2919;48.630;9.000;2023-02-15T01:39:43;22.10;;;8.63;;
5785;SDS011;2919;48.630;9.000;2023-02-15T01:42:10;18.60;;;8.63;;
5785;SDS011;2919;48.630;9.000;2023-02-15T01:47:38;17.80;;;8.40;;
5785;SDS011;2919;48.630;9.000;2023-02-15T01:55:27;19.17;;;8.50;;
5785;SDS011;2919;48.630;9.000;2023-02-15T01:57:58;26.03;;;10.10;;
5785;SDS011;2919;48.630;9.000;2023-02-15T02:00:24;14.20;;;8.10;;
5785;SDS011;2919;48.630;9.000;2023-02-15T02:02:50;16.13;;;8.80;;
5785;SDS011;2919;48.630;9.000;2023-02-15T02:05:20;14.13;;;8.00;;
5785;SDS011;2919;48.630;9.000;2023-02-15T02:07:45;17.30;;;8.33;;
5785;SDS011;2919;48.630;9.000;2023-02-15T02:10:15;15.57;;;8.80;;
5785;SDS011;2919;48.630;9.000;2023-02-15T02:12:44;18.20;;;8.47;;
5785;SDS011;2919;48.630;9.000;2023-02-15T02:15:11;14.40;;;8.50;;
5785;SDS011;2919;48.630;9.000;2023-02-15T02:36:30;24.50;;;9.17;;
5785;SDS011;2919;48.630;9.000;2023-02-15T02:39:11;23.00;;;9.30;;
5785;SDS011;2919;48.630;9.000;2023-02-15T02:44:37;15.53;;;8.47;;
5785;SDS011;2919;48.630;9.000;2023-02-15T02:47:18;18.63;;;7.60;;
5785;SDS011;2919;48.630;9.000;2023-02-15T02:49:58;20.23;;;8.33;;
5785;SDS011;2919;48.630;9.000;2023-02-15T02:52:42;17.17;;;8.90;;
5785;SDS011;2919;48.630;9.000;2023-02-15T02:57:52;16.10;;;8.20;;
5785;SDS011;2919;48.630;9.000;2023-02-15T03:00:21;18.20;;;9.03;;
5785;SDS011;2919;48.630;9.000;2023-02-15T03:02:51;17.13;;;7.53;;
5785;SDS011;2919;48.630;9.000;2023-02-15T03:05:23;9.93;;;6.90;;
5785;SDS011;2919;48.630;9.000;2023-02-15T03:07:52;13.63;;;7.40;;
5785;SDS011;2919;48.630;9.000;2023-02-15T03:10:22;18.77;;;7.77;;
5785;SDS011;2919;48.630;9.000;2023-02-15T03:12:49;13.30;;;7.80;;
5785;SDS011;2919;48.630;9.000;2023-02-15T03:15:20;15.87;;;7.30;;
5785;SDS011;2919;48.630;9.000;2023-02-15T03:17:52;14.90;;;7.50;;
5785;SDS011;2919;48.630;9.000;2023-02-15T03:20:24;11.90;;;7.20;;
5785;SDS011;2919;48.630;9.000;2023-02-15T03:22:55;12.77;;;7.23;;
5785;SDS011;2919;48.630;9.000;2023-02-15T03:25:26;15.70;;;7.50;;
5785;SDS011;2919;48.630;9.000;2023-02-15T03:28:03;16.33;;;7.17;;
5785;SDS011;2919;48.630;9.000;2023-02-15T03:30:32;20.17;;;8.70;;
5785;SDS011;2919;48.630;9.000;2023-02-15T03:33:00;17.13;;;8.40;;
5785;SDS011;2919;48.630;9.000;2023-02-15T03:35:31;12.90;;;6.60;;
5785;SDS011;2919;48.630;9.000;2023-02-15T03:38:04;17.80;;;6.63;;
5785;SDS011;2919;48.630;9.000;2023-02-15T03:40:40;14.53;;;6.90;;
5785;SDS011;2919;48.630;9.000;2023-02-15T03:43:48;12.47;;;6.93;;
5785;SDS011;2919;48.630;9.000;2023-02-15T03:46:17;15.00;;;7.93;;
5785;SDS011;2919;48.630;9.000;2023-02-15T03:51:50;13.93;;;6.87;;
5785;SDS011;2919;48.630;9.000;2023-02-15T03:59:58;17.87;;;8.07;;
5785;SDS011;2919;48.630;9.000;2023-02-15T04:03:07;16.53;;;7.43;;
5785;SDS011;2919;48.630;9.000;2023-02-15T04:05:33;13.23;;;7.13;;
5785;SDS011;2919;48.630;9.000;2023-02-15T04:07:59;13.30;;;6.50;;
5785;SDS011;2919;48.630;9.000;2023-02-15T04:10:24;18.90;;;7.47;;
5785;SDS011;2919;48.630;9.000;2023-02-15T04:13:08;15.00;;;7.00;;
5785;SDS011;2919;48.630;9.000;2023-02-15T04:15:34;18.03;;;7.90;;
5785;SDS011;2919;48.630;9.000;2023-02-15T04:18:18;13.63;;;8.00;;
5785;SDS011;2919;48.630;9.000;2023-02-15T04:20:44;21.33;;;7.90;;
5785;SDS011;2919;48.630;9.000;2023-02-15T04:23:29;17.37;;;7.50;;
5785;SDS011;2919;48.630;9.000;2023-02-15T04:26:14;13.10;;;7.07;;
5785;SDS011;2919;48.630;9.000;2023-02-15T04:28:39;13.83;;;7.13;;
5785;SDS011;2919;48.630;9.000;2023-02-15T04:31:05;10.57;;;6.20;;
5785;SDS011;2919;48.630;9.000;2023-02-15T04:33:31;16.10;;;6.90;;
5785;SDS011;2919;48.630;9.000;2023-02-15T04:35:57;14.90;;;7.67;;
5785;SDS011;2919;48.630;9.000;2023-02-15T04:38:22;15.83;;;6.13;;
5785;SDS011;2919;48.630;9.000;2023-02-15T04:40:51;18.53;;;8.50;;
5785;SDS011;2919;48.630;9.000;2023-02-15T04:43:20;14.10;;;7.43;;
5785;SDS011;2919;48.630;9.000;2023-02-15T04:45:49;16.23;;;8.33;;
5785;SDS011;2919;48.630;9.000;2023-02-15T04:48:15;12.60;;;7.27;;
5785;SDS011;2919;48.630;9.000;2023-02-15T04:50:42;16.27;;;7.67;;
5785;SDS011;2919;48.630;9.000;2023-02-15T04:53:08;13.23;;;7.10;;
5785;SDS011;2919;48.630;9.000;2023-02-15T04:55:34;11.13;;;5.87;;
5785;SDS011;2919;48.630;9.000;2023-02-15T04:57:59;19.50;;;8.53;;
5785;SDS011;2919;48.630;9.000;2023-02-15T05:00:25;18.10;;;7.07;;
5785;SDS011;2919;48.630;9.000;2023-02-15T05:02:52;17.10;;;9.07;;
5785;SDS011;2919;48.630;9.000;2023-02-15T05:05:18;20.13;;;7.20;;
5785;SDS011;2919;48.630;9.000;2023-02-15T05:07:43;17.03;;;8.23;;
5785;SDS011;2919;48.630;9.000;2023-02-15T05:10:09;12.50;;;5.70;;
5785;SDS011;2919;48.630;9.000;2023-02-15T05:12:35;14.80;;;6.50;;
5785;SDS011;2919;48.630;9.000;2023-02-15T05:15:01;12.93;;;5.97;;
5785;SDS011;2919;48.630;9.000;2023-02-15T05:17:26;15.80;;;5.73;;
5785;SDS011;2919;48.630;9.000;2023-02-15T05:19:52;17.40;;;7.30;;
5785;SDS011;2919;48.630;9.000;2023-02-15T05:22:17;20.63;;;7.53;;
5785;SDS011;2919;48.630;9.000;2023-02-15T05:24:43;18.70;;;7.90;;
5785;SDS011;2919;48.630;9.000;2023-02-15T05:27:27;22.60;;;7.37;;
5785;SDS011;2919;48.630;9.000;2023-02-15T05:30:11;20.33;;;6.33;;
5785;SDS011;2919;48.630;9.000;2023-02-15T05:32:38;27.77;;;7.20;;
5785;SDS011;2919;48.630;9.000;2023-02-15T05:35:04;16.70;;;8.60;;
5785;SDS011;2919;48.630;9.000;2023-02-15T05:37:31;15.30;;;7.67;;
5785;SDS011;2919;48.630;9.000;2023-02-15T05:39:56;12.50;;;6.07;;
5785;SDS011;2919;48.630;9.000;2023-02-15T05:42:22;13.23;;;6.60;;
5785;SDS011;2919;48.630;9.000;2023-02-15T05:44:48;18.53;;;6.87;;
5785;SDS011;2919;48.630;9.000;2023-02-15T05:47:13;18.33;;;8.07;;
5785;SDS011;2919;48.630;9.000;2023-02-15T05:49:39;12.40;;;6.77;;
5785;SDS011;2919;48.630;9.000;2023-02-15T05:52:04;12.43;;;5.83;;
5785;SDS011;2919;48.630;9.000;2023-02-15T05:54:30;16.63;;;7.43;;
5785;SDS011;2919;48.630;9.000;2023-02-15T05:56:55;11.67;;;6.73;;
5785;SDS011;2919;48.630;9.000;2023-02-15T05:59:21;17.70;;;7.70;;
5785;SDS011;2919;48.630;9.000;2023-02-15T06:01:47;12.43;;;7.63;;
5785;SDS011;2919;48.630;9.000;2023-02-15T06:04:12;16.17;;;8.13;;
5785;SDS011;2919;48.630;9.000;2023-02-15T06:06:38;17.37;;;7.97;;
5785;SDS011;2919;48.630;9.000;2023-02-15T06:09:04;21.70;;;8.40;;
5785;SDS011;2919;48.630;9.000;2023-02-15T06:11:29;20.17;;;9.10;;
5785;SDS011;2919;48.630;9.000;2023-02-15T06:13:55;24.93;;;9.23;;
5785;SDS011;2919;48.630;9.000;2023-02-15T06:16:21;17.80;;;8.50;;
5785;SDS011;2919;48.630;9.000;2023-02-15T06:18:47;17.17;;;8.13;;
5785;SDS011;2919;48.630;9.000;2023-02-15T06:21:12;23.10;;;7.90;;
5785;SDS011;2919;48.630;9.000;2023-02-15T06:23:38;14.27;;;6.87;;
5785;SDS011;2919;48.630;9.000;2023-02-15T06:26:04;16.67;;;8.00;;
5785;SDS011;2919;48.630;9.000;2023-02-15T06:28:29;15.40;;;7.67;;
5785;SDS011;2919;48.630;9.000;2023-02-15T06:30:55;17.10;;;7.83;;
5785;SDS011;2919;48.630;9.000;2023-02-15T06:33:21;16.63;;;8.23;;
5785;SDS011;2919;48.630;9.000;2023-02-15T06:35:47;13.60;;;7.73;;
5785;SDS011;2919;48.630;9.000;2023-02-15T06:38:13;19.77;;;7.73;;
5785;SDS011;2919;48.630;9.000;2023-02-15T06:40:38;17.43;;;6.43;;
5785;SDS011;2919;48.630;9.000;2023-02-15T06:43:04;17.93;;;7.37;;
5785;SDS011;2919;48.630;9.000;2023-02-15T06:45:30;4.63;;;0.83;;
5785;SDS011;2919;48.630;9.000;2023-02-15T06:47:55;17.83;;;7.40;;
5785;SDS011;2919;48.630;9.000;2023-02-15T06:50:21;16.63;;;8.00;;
5785;SDS011;2919;48.630;9.000;2023-02-15T06:52:46;14.63;;;7.30;;
5785;SDS011;2919;48.630;9.000;2023-02-15T06:55:12;20.17;;;6.97;;
5785;SDS011;2919;48.630;9.000;2023-02-15T06:57:38;16.83;;;6.93;;
5785;SDS011;2919;48.630;9.000;2023-02-15T07:00:03;17.10;;;7.90;;
5785;SDS011;2919;48.630;9.000;2023-02-15T07:02:30;12.00;;;6.63;;
5785;SDS011;2919;48.630;9.000;2023-02-15T07:04:56;21.40;;;7.37;;
5785;SDS011;2919;48.630;9.000;2023-02-15T07:07:22;23.63;;;8.90;;
5785;SDS011;2919;48.630;9.000;2023-02-15T07:09:47;15.03;;;8.47;;
5785;SDS011;2919;48.630;9.000;2023-02-15T07:12:13;16.90;;;7.50;;
5785;SDS011;2919;48.630;9.000;2023-02-15T07:14:57;17.60;;;7.67;;
5785;SDS011;2919;48.630;9.000;2023-02-15T07:17:23;19.07;;;8.43;;
5785;SDS011;2919;48.630;9.000;2023-02-15T07:19:53;18.40;;;8.83;;
5785;SDS011;2919;48.630;9.000;2023-02-15T07:22:19;21.13;;;7.93;;
5785;SDS011;2919;48.630;9.000;2023-02-15T07:24:44;16.23;;;7.80;;
5785;SDS011;2919;48.630;9.000;2023-02-15T07:27:10;14.03;;;7.80;;
5785;SDS011;2919;48.630;9.000;2023-02-15T07:29:35;21.20;;;8.60;;
5785;SDS011;2919;48.630;9.000;2023-02-15T07:32:01;20.53;;;9.67;;
5785;SDS011;2919;48.630;9.000;2023-02-15T07:34:27;23.17;;;8.63;;
5785;SDS011;2919;48.630;9.000;2023-02-15T07:36:52;16.03;;;8.33;;
5785;SDS011;2919;48.630;9.000;2023-02-15T07:39:18;20.73;;;8.73;;
5785;SDS011;2919;48.630;9.000;2023-02-15T07:41:44;17.27;;;6.80;;
5785;SDS011;2919;48.630;9.000;2023-02-15T07:44:13;18.70;;;10.23;;
5785;SDS011;2919;48.630;9.000;2023-02-15T07:46:39;19.70;;;9.63;;
5785;SDS011;2919;48.630;9.000;2023-02-15T07:49:05;20.53;;;9.10;;
5785;SDS011;2919;48.630;9.000;2023-02-15T07:51:31;14.67;;;7.20;;
5785;SDS011;2919;48.630;9.000;2023-02-15T07:53:56;27.57;;;12.83;;
5785;SDS011;2919;48.630;9.000;2023-02-15T07:56:22;24.13;;;11.53;;
5785;SDS011;2919;48.630;9.000;2023-02-15T07:58:48;25.83;;;13.40;;
5785;SDS011;2919;48.630;9.000;2023-02-15T08:01:32;25.10;;;11.13;;
5785;SDS011;2919;48.630;9.000;2023-02-15T08:04:00;19.70;;;10.17;;
5785;SDS011;2919;48.630;9.000;2023-02-15T08:06:27;22.23;;;11.67;;
5785;SDS011;2919;48.630;9.000;2023-02-15T08:08:55;17.17;;;9.13;;
5785;SDS011;2919;48.630;9.000;2023-02-15T08:11:24;23.77;;;8.13;;
5785;SDS011;2919;48.630;9.000;2023-02-15T08:19:08;14.43;;;6.13;;
5785;SDS011;2919;48.630;9.000;2023-02-15T08:21:36;18.30;;;6.20;;
5785;SDS011;2919;48.630;9.000;2023-02-15T08:24:04;11.70;;;3.83;;
5785;SDS011;2919;48.630;9.000;2023-02-15T08:26:31;11.93;;;4.80;;
5785;SDS011;2919;48.630;9.000;2023-02-15T08:28:57;8.40;;;4.97;;
5785;SDS011;2919;48.630;9.000;2023-02-15T08:31:24;5.90;;;3.57;;
5785;SDS011;2919;48.630;9.000;2023-02-15T08:33:51;32.40;;;6.17;;
5785;SDS011;2919;48.630;9.000;2023-02-15T08:36:19;11.30;;;5.00;;
5785;SDS011;2919;48.630;9.000;2023-02-15T08:38:46;9.90;;;4.93;;
5785;SDS011;2919;48.630;9.000;2023-02-15T08:41:24;16.47;;;5.27;;
5785;SDS011;2919;48.630;9.000;2023-02-15T08:43:53;10.00;;;4.70;;
5785;SDS011;2919;48.630;9.000;2023-02-15T08:46:20;23.70;;;6.10;;
5785;SDS011;2919;48.630;9.000;2023-02-15T08:48:48;15.57;;;5.30;;
5785;SDS011;2919;48.630;9.000;2023-02-15T08:51:15;7.67;;;4.60;;
5785;SDS011;2919;48.630;9.000;2023-02-15T08:53:42;12.50;;;5.53;;
5785;SDS011;2919;48.630;9.000;2023-02-15T08:56:09;10.80;;;5.30;;
5785;SDS011;2919;48.630;9.000;2023-02-15T08:58:36;10.40;;;4.37;;
5785;SDS011;2919;48.630;9.000;2023-02-15T09:01:09;12.67;;;5.47;;
5785;SDS011;2919;48.630;9.000;2023-02-15T09:03:43;8.50;;;4.53;;
5785;SDS011;2919;48.630;9.000;2023-02-15T09:06:10;4.87;;;3.30;;
5785;SDS011;2919;48.630;9.000;2023-02-15T09:08:36;8.67;;;4.43;;
5785;SDS011;2919;48.630;9.000;2023-02-15T09:11:07;8.63;;;4.70;;
5785;SDS011;2919;48.630;9.000;2023-02-15T09:13:34;16.80;;;4.60;;
5785;SDS011;2919;48.630;9.000;2023-02-15T09:16:01;10.33;;;4.97;;
5785;SDS011;2919;48.630;9.000;2023-02-15T09:18:30;9.07;;;4.57;;
5785;SDS011;2919;48.630;9.000;2023-02-15T09:21:03;9.03;;;4.47;;
5785;SDS011;2919;48.630;9.000;2023-02-15T09:23:29;10.80;;;4.40;;
5785;SDS011;2919;48.630;9.000;2023-02-15T09:25:55;10.47;;;4.70;;
5785;SDS011;2919;48.630;9.000;2023-02-15T09:28:20;10.20;;;5.57;;
5785;SDS011;2919;48.630;9.000;2023-02-15T09:30:46;11.97;;;5.23;;
5785;SDS011;2919;48.630;9.000;2023-02-15T09:33:11;20.40;;;5.87;;
5785;SDS011;2919;48.630;9.000;2023-02-15T09:35:37;12.90;;;5.30;;
5785;SDS011;2919;48.630;9.000;2023-02-15T09:38:03;8.20;;;4.40;;
5785;SDS011;2919;48.630;9.000;2023-02-15T09:40:29;11.30;;;5.00;;
5785;SDS011;2919;48.630;9.000;2023-02-15T09:43:14;13.87;;;5.70;;
5785;SDS011;2919;48.630;9.000;2023-02-15T09:49:09;16.20;;;4.87;;
5785;SDS011;2919;48.630;9.000;2023-02-15T09:55:38;8.87;;;4.00;;
5785;SDS011;2919;48.630;9.000;2023-02-15T09:58:33;7.37;;;3.43;;
5785;SDS011;2919;48.630;9.000;2023-02-15T10:23:42;5.93;;;3.80;;
5785;SDS011;2919;48.630;9.000;2023-02-15T10:26:20;16.33;;;5.43;;
5785;SDS011;2919;48.630;9.000;2023-02-15T10:29:07;10.37;;;4.80;;
5785;SDS011;2919;48.630;9.000;2023-02-15T10:34:58;13.83;;;6.40;;
5785;SDS011;2919;48.630;9.000;2023-02-15T10:45:10;7.70;;;4.40;;
5785;SDS011;2919;48.630;9.000;2023-02-15T10:50:51;12.30;;;5.57;;
5785;SDS011;2919;48.630;9.000;2023-02-15T11:06:39;8.70;;;3.50;;
5785;SDS011;2919;48.630;9.000;2023-02-15T11:09:09;9.27;;;3.90;;
5785;SDS011;2919;48.630;9.000;2023-02-15T11:11:38;8.60;;;3.10;;
5785;SDS011;2919;48.630;9.000;2023-02-15T11:14:12;6.73;;;3.53;;
5785;SDS011;2919;48.630;9.000;2023-02-15T11:16:55;4.80;;;2.77;;
5785;SDS011;2919;48.630;9.000;2023-02-15T11:19:31;8.43;;;2.93;;
5785;SDS011;2919;48.630;9.000;2023-02-15T11:22:01;6.60;;;3.07;;
5785;SDS011;2919;48.630;9.000;2023-02-15T11:24:29;3.20;;;1.60;;
5785;SDS011;2919;48.630;9.000;2023-02-15T11:27:00;7.83;;;2.30;;
5785;SDS011;2919;48.630;9.000;2023-02-15T11:29:38;3.40;;;2.20;;
5785;SDS011;2919;48.630;9.000;2023-02-15T11:42:45;4.27;;;2.20;;
5785;SDS011;2919;48.630;9.000;2023-02-15T11:47:59;5.40;;;2.60;;
5785;SDS011;2919;48.630;9.000;2023-02-15T11:50:31;3.70;;;2.20;;
5785;SDS011;2919;48.630;9.000;2023-02-15T11:52:58;3.87;;;1.90;;
5785;SDS011;2919;48.630;9.000;2023-02-15T11:55:28;3.57;;;2.07;;
5785;SDS011;2919;48.630;9.000;2023-02-15T11:58:02;5.50;;;2.30;;
5785;SDS011;2919;48.630;9.000;2023-02-15T12:00:32;5.97;;;2.13;;
5785;SDS011;2919;48.630;9.000;2023-02-15T12:03:01;5.73;;;2.53;;
5785;SDS011;2919;48.630;9.000;2023-02-15T12:05:37;4.07;;;2.13;;
5785;SDS011;2919;48.630;9.000;2023-02-15T12:08:16;3.50;;;1.97;;
5785;SDS011;2919;48.630;9.000;2023-02-15T12:10:58;4.10;;;2.10;;
5785;SDS011;2919;48.630;9.000;2023-02-15T12:13:30;3.80;;;1.80;;
5785;SDS011;2919;48.630;9.000;2023-02-15T12:15:56;4.43;;;2.27;;
5785;SDS011;2919;48.630;9.000;2023-02-15T12:18:37;6.20;;;1.80;;
5785;SDS011;2919;48.630;9.000;2023-02-15T12:23:40;4.40;;;1.80;;
5785;SDS011;2919;48.630;9.000;2023-02-15T12:26:15;4.50;;;1.70;;
5785;SDS011;2919;48.630;9.000;2023-02-15T12:28:52;4.67;;;2.20;;
5785;SDS011;2919;48.630;9.000;2023-02-15T12:31:27;3.30;;;2.07;;
5785;SDS011;2919;48.630;9.000;2023-02-15T12:33:57;2.47;;;1.33;;
5785;SDS011;2919;48.630;9.000;2023-02-15T12:36:32;5.10;;;2.37;;
5785;SDS011;2919;48.630;9.000;2023-02-15T12:41:37;4.70;;;1.87;;
5785;SDS011;2919;48.630;9.000;2023-02-15T12:44:31;5.07;;;2.20;;
5785;SDS011;2919;48.630;9.000;2023-02-15T12:49:30;2.47;;;1.70;;
5785;SDS011;2919;48.630;9.000;2023-02-15T12:52:02;5.37;;;2.33;;
5785;SDS011;2919;48.630;9.000;2023-02-15T12:57:01;11.03;;;3.27;;
5785;SDS011;2919;48.630;9.000;2023-02-15T12:59:37;3.50;;;2.20;;
5785;SDS011;2919;48.630;9.000;2023-02-15T13:02:21;8.00;;;4.17;;
5785;SDS011;2919;48.630;9.000;2023-02-15T13:04:49;4.20;;;2.27;;
5785;SDS011;2919;48.630;9.000;2023-02-15T13:07:16;6.00;;;3.23;;
5785;SDS011;2919;48.630;9.000;2023-02-15T13:09:42;7.47;;;3.00;;
5785;SDS011;2919;48.630;9.000;2023-02-15T13:14:49;4.90;;;2.97;;
5785;SDS011;2919;48.630;9.000;2023-02-15T13:17:17;8.30;;;2.50;;
5785;SDS011;2919;48.630;9.000;2023-02-15T13:19:50;5.60;;;2.47;;
5785;SDS011;2919;48.630;9.000;2023-02-15T13:22:25;3.83;;;2.03;;
5785;SDS011;2919;48.630;9.000;2023-02-15T13:25:19;4.20;;;2.30;;
5785;SDS011;2919;48.630;9.000;2023-02-15T13:27:50;6.97;;;2.87;;
5785;SDS011;2919;48.630;9.000;2023-02-15T13:30:22;5.00;;;2.07;;
5785;SDS011;2919;48.630;9.000;2023-02-15T13:32:48;3.83;;;1.90;;
5785;SDS011;2919;48.630;9.000;2023-02-15T13:35:17;4.33;;;2.10;;
5785;SDS011;2919;48.630;9.000;2023-02-15T13:46:14;10.43;;;2.23;;
5785;SDS011;2919;48.630;9.000;2023-02-15T13:59:53;5.70;;;2.73;;
5785;SDS011;2919;48.630;9.000;2023-02-15T14:16:58;7.63;;;4.13;;
5785;SDS011;2919;48.630;9.000;2023-02-15T14:19:35;6.10;;;3.70;;
5785;SDS011;2919;48.630;9.000;2023-02-15T14:30:42;6.40;;;3.27;;
5785;SDS011;2919;48.630;9.000;2023-02-15T14:35:41;16.73;;;4.10;;
5785;SDS011;2919;48.630;9.000;2023-02-15T14:41:12;7.27;;;3.10;;
5785;SDS011;2919;48.630;9.000;2023-02-15T14:46:41;7.97;;;3.83;;
5785;SDS011;2919;48.630;9.000;2023-02-15T14:49:31;4.80;;;2.90;;
5785;SDS011;2919;48.630;9.000;2023-02-15T14:52:04;9.40;;;4.33;;
5785;SDS011;2919;48.630;9.000;2023-02-15T15:04:56;10.30;;;5.13;;
5785;SDS011;2919;48.630;9.000;2023-02-15T15:07:41;11.67;;;4.00;;
5785;SDS011;2919;48.630;9.000;2023-02-15T15:12:45;11.20;;;4.20;;
5785;SDS011;2919;48.630;9.000;2023-02-15T15:17:59;10.33;;;5.27;;
5785;SDS011;2919;48.630;9.000;2023-02-15T15:23:33;7.90;;;3.87;;
5785;SDS011;2919;48.630;9.000;2023-02-15T15:25:41;8.13;;;3.33;;
5785;SDS011;2919;48.630;9.000;2023-02-15T15:42:10;10.10;;;3.63;;
5785;SDS011;2919;48.630;9.000;2023-02-15T15:50:45;15.50;;;4.40;;
5785;SDS011;2919;48.630;9.000;2023-02-15T15:53:19;12.83;;;4.47;;
5785;SDS011;2919;48.630;9.000;2023-02-15T15:55:47;6.87;;;3.67;;
5785;SDS011;2919;48.630;9.000;2023-02-15T15:58:16;5.53;;;3.13;;
5785;SDS011;2919;48.630;9.000;2023-02-15T16:00:47;5.07;;;3.03;;
5785;SDS011;2919;48.630;9.000;2023-02-15T16:03:25;5.30;;;3.10;;
5785;SDS011;2919;48.630;9.000;2023-02-15T16:05:52;9.00;;;4.03;;
5785;SDS011;2919;48.630;9.000;2023-02-15T16:10:58;7.70;;;4.13;;
5785;SDS011;2919;48.630;9.000;2023-02-15T16:13:25;9.33;;;4.13;;
5785;SDS011;2919;48.630;9.000;2023-02-15T16:15:52;11.00;;;4.30;;
5785;SDS011;2919;48.630;9.000;2023-02-15T16:18:21;7.80;;;4.00;;
5785;SDS011;2919;48.630;9.000;2023-02-15T16:20:51;10.20;;;4.40;;
5785;SDS011;2919;48.630;9.000;2023-02-15T16:23:33;8.03;;;4.13;;
5785;SDS011;2919;48.630;9.000;2023-02-15T16:29:32;9.30;;;4.60;;
5785;SDS011;2919;48.630;9.000;2023-02-15T16:34:31;10.27;;;5.30;;
5785;SDS011;2919;48.630;9.000;2023-02-15T16:37:16;10.27;;;5.10;;
5785;SDS011;2919;48.630;9.000;2023-02-15T16:39:43;13.47;;;6.67;;
5785;SDS011;2919;48.630;9.000;2023-02-15T16:42:11;8.47;;;4.30;;
5785;SDS011;2919;48.630;9.000;2023-02-15T16:44:38;14.50;;;5.00;;
5785;SDS011;2919;48.630;9.000;2023-02-15T16:47:05;10.40;;;4.33;;
5785;SDS011;2919;48.630;9.000;2023-02-15T16:49:40;7.37;;;3.20;;
5785;SDS011;2919;48.630;9.000;2023-02-15T16:52:11;10.47;;;4.57;;
5785;SDS011;2919;48.630;9.000;2023-02-15T16:54:43;9.00;;;3.93;;
5785;SDS011;2919;48.630;9.000;2023-02-15T16:57:16;6.60;;;4.03;;
5785;SDS011;2919;48.630;9.000;2023-02-15T16:59:46;8.13;;;4.67;;
5785;SDS011;2919;48.630;9.000;2023-02-15T17:02:18;8.30;;;4.80;;
5785;SDS011;2919;48.630;9.000;2023-02-15T17:10:45;11.47;;;4.30;;
5785;SDS011;2919;48.630;9.000;2023-02-15T17:13:32;7.53;;;4.60;;
5785;SDS011;2919;48.630;9.000;2023-02-15T17:18:30;8.53;;;4.53;;
5785;SDS011;2919;48.630;9.000;2023-02-15T17:21:13;6.10;;;4.07;;
5785;SDS011;2919;48.630;9.000;2023-02-15T17:23:47;13.10;;;4.90;;
5785;SDS011;2919;48.630;9.000;2023-02-15T17:26:17;9.10;;;4.30;;
5785;SDS011;2919;48.630;9.000;2023-02-15T17:28:48;11.70;;;4.47;;
5785;SDS011;2919;48.630;9.000;2023-02-15T17:31:19;13.97;;;5.20;;
5785;SDS011;2919;48.630;9.000;2023-02-15T17:33:46;11.73;;;4.90;;
5785;SDS011;2919;48.630;9.000;2023-02-15T17:36:13;21.33;;;5.97;;
5785;SDS011;2919;48.630;9.000;2023-02-15T17:38:58;10.00;;;5.03;;
5785;SDS011;2919;48.630;9.000;2023-02-15T17:41:27;9.50;;;5.07;;
5785;SDS011;2919;48.630;9.000;2023-02-15T17:43:54;21.80;;;5.90;;
5785;SDS011;2919;48.630;9.000;2023-02-15T17:46:20;19.53;;;6.20;;
5785;SDS011;2919;48.630;9.000;2023-02-15T17:48:48;14.27;;;5.43;;
5785;SDS011;2919;48.630;9.000;2023-02-15T17:51:15;9.47;;;5.10;;
5785;SDS011;2919;48.630;9.000;2023-02-15T17:53:42;12.73;;;5.67;;
5785;SDS011;2919;48.630;9.000;2023-02-15T17:56:28;13.60;;;5.83;;
5785;SDS011;2919;48.630;9.000;2023-02-15T17:58:54;11.27;;;5.90;;
5785;SDS011;2919;48.630;9.000;2023-02-15T18:01:19;8.10;;;4.50;;
5785;SDS011;2919;48.630;9.000;2023-02-15T18:04:04;12.70;;;5.97;;
5785;SDS011;2919;48.630;9.000;2023-02-15T18:06:51;8.80;;;5.07;;
5785;SDS011;2919;48.630;9.000;2023-02-15T18:09:35;12.63;;;6.20;;
5785;SDS011;2919;48.630;9.000;2023-02-15T18:14:47;7.60;;;4.33;;
5785;SDS011;2919;48.630;9.000;2023-02-15T18:17:14;15.27;;;5.57;;
5785;SDS011;2919;48.630;9.000;2023-02-15T18:19:40;19.57;;;9.20;;
5785;SDS011;2919;48.630;9.000;2023-02-15T18:22:11;20.00;;;9.03;;
5785;SDS011;2919;48.630;9.000;2023-02-15T18:24:39;17.70;;;7.90;;
5785;SDS011;2919;48.630;9.000;2023-02-15T18:27:05;17.57;;;8.50;;
5785;SDS011;2919;48.630;9.000;2023-02-15T18:29:31;16.33;;;7.10;;
5785;SDS011;2919;48.630;9.000;2023-02-15T18:31:56;18.30;;;8.40;;
5785;SDS011;2919;48.630;9.000;2023-02-15T18:34:28;14.07;;;6.60;;
5785;SDS011;2919;48.630;9.000;2023-02-15T18:36:58;13.53;;;4.70;;
5785;SDS011;2919;48.630;9.000;2023-02-15T18:41:52;13.73;;;7.00;;
5785;SDS011;2919;48.630;9.000;2023-02-15T18:44:18;19.53;;;7.97;;
5785;SDS011;2919;48.630;9.000;2023-02-15T18:46:43;15.23;;;7.60;;
5785;SDS011;2919;48.630;9.000;2023-02-15T18:49:09;21.17;;;7.83;;
5785;SDS011;2919;48.630;9.000;2023-02-15T18:51:35;13.67;;;7.13;;
5785;SDS011;2919;48.630;9.000;2023-02-15T18:54:04;20.83;;;8.53;;
5785;SDS011;2919;48.630;9.000;2023-02-15T18:56:36;20.07;;;7.70;;
5785;SDS011;2919;48.630;9.000;2023-02-15T18:59:01;14.33;;;7.27;;
5785;SDS011;2919;48.630;9.000;2023-02-15T19:01:27;11.07;;;6.17;;
5785;SDS011;2919;48.630;9.000;2023-02-15T19:03:53;8.80;;;6.30;;
5785;SDS011;2919;48.630;9.000;2023-02-15T19:06:19;19.10;;;7.20;;
5785;SDS011;2919;48.630;9.000;2023-02-15T19:08:47;14.73;;;6.80;;
5785;SDS011;2919;48.630;9.000;2023-02-15T19:11:16;14.40;;;6.33;;
5785;SDS011;2919;48.630;9.000;2023-02-15T19:13:47;10.17;;;5.27;;
5785;SDS011;2919;48.630;9.000;2023-02-15T19:16:56;12.40;;;5.70;;
5785;SDS011;2919;48.630;9.000;2023-02-15T19:19:02;8.40;;;4.90;;
5785;SDS011;2919;48.630;9.000;2023-02-15T19:21:29;15.20;;;6.23;;
5785;SDS011;2919;48.630;9.000;2023-02-15T19:24:02;12.13;;;6.83;;